createdAt,value
2023-01-21T00:00:37.938Z,0.88
2023-01-21T00:01:37.865Z,0.88
2023-01-21T00:02:37.832Z,0.90
2023-01-21T00:03:37.787Z,0.89
2023-01-21T00:04:37.645Z,0.90
2023-01-21T00:05:37.571Z,0.86
2023-01-21T00:06:37.500Z,0.92
2023-01-21T00:07:37.427Z,0.78
2023-01-21T00:08:37.412Z,0.89
2023-01-21T00:09:37.291Z,0.98
2023-01-21T00:10:37.227Z,0.93
2023-01-21T00:11:37.149Z,1.02
2023-01-21T00:12:37.079Z,0.98
2023-01-21T00:13:36.996Z,0.92
2023-01-21T00:14:36.939Z,0.88
2023-01-21T00:15:36.930Z,0.89
2023-01-21T00:16:36.784Z,0.93
2023-01-21T00:17:36.729Z,0.93
2023-01-21T00:18:36.636Z,0.93
2023-01-21T00:19:36.567Z,0.90
2023-01-21T00:20:36.510Z,0.93
2023-01-21T00:21:36.422Z,0.96
2023-01-21T00:22:36.348Z,0.96
2023-01-21T00:23:36.280Z,1.00
2023-01-21T00:24:36.209Z,0.89
2023-01-21T00:25:36.139Z,0.96
2023-01-21T00:26:36.064Z,1.00
2023-01-21T00:27:35.987Z,0.92
2023-01-21T00:28:35.921Z,0.95
2023-01-21T00:29:35.845Z,0.99
2023-01-21T00:30:35.812Z,0.96
2023-01-21T00:31:35.788Z,0.89
2023-01-21T00:32:35.634Z,0.92
2023-01-21T00:33:35.584Z,0.96
2023-01-21T00:34:35.487Z,0.92
2023-01-21T00:35:35.415Z,0.93
2023-01-21T00:36:35.362Z,0.93
2023-01-21T00:37:35.273Z,1.00
2023-01-21T00:38:35.270Z,0.98
2023-01-21T00:39:35.131Z,1.00
2023-01-21T00:40:35.058Z,0.92
2023-01-21T00:41:35.001Z,0.98
2023-01-21T00:42:34.914Z,0.95
2023-01-21T00:43:34.841Z,0.99
2023-01-21T00:44:34.773Z,1.04
2023-01-21T00:45:34.696Z,1.02
2023-01-21T00:46:34.664Z,0.95
2023-01-21T00:47:34.556Z,0.98
2023-01-21T00:48:34.485Z,0.98
2023-01-21T00:49:34.413Z,1.06
2023-01-21T00:50:34.340Z,1.02
2023-01-21T00:51:34.271Z,1.06
2023-01-21T00:52:34.205Z,1.00
2023-01-21T00:53:34.149Z,1.04
2023-01-21T00:54:34.054Z,0.98
2023-01-21T00:55:34.011Z,1.02
2023-01-21T00:56:33.908Z,0.98
2023-01-21T00:57:33.837Z,1.02
2023-01-21T00:58:33.763Z,1.00
2023-01-21T00:59:33.725Z,1.06
2023-01-21T01:00:33.620Z,0.98
2023-01-21T01:01:33.609Z,1.00
2023-01-21T01:02:33.522Z,1.08
2023-01-21T01:03:33.421Z,1.06
2023-01-21T01:04:33.368Z,0.95
2023-01-21T01:05:33.277Z,1.06
2023-01-21T01:06:33.200Z,0.95
2023-01-21T01:07:33.123Z,0.98
2023-01-21T01:08:33.083Z,0.93
2023-01-21T01:09:32.972Z,1.00
2023-01-21T01:10:32.930Z,0.92
2023-01-21T01:11:32.856Z,1.02
2023-01-21T01:12:32.763Z,0.93
2023-01-21T01:13:32.728Z,0.93
2023-01-21T01:14:32.622Z,0.89
2023-01-21T01:15:32.546Z,0.92
2023-01-21T01:16:32.478Z,0.96
2023-01-21T01:17:32.400Z,0.96
2023-01-21T01:18:32.328Z,0.99
2023-01-21T01:19:32.273Z,0.98
2023-01-21T01:20:32.189Z,0.96
2023-01-21T01:21:32.118Z,0.95
2023-01-21T01:22:32.079Z,1.00
2023-01-21T01:23:31.968Z,0.99
2023-01-21T01:24:31.905Z,1.04
2023-01-21T01:25:31.825Z,0.89
2023-01-21T01:26:31.756Z,1.00
2023-01-21T01:27:31.707Z,1.00
2023-01-21T01:28:31.626Z,0.99
2023-01-21T01:29:31.549Z,0.99
2023-01-21T01:30:31.486Z,1.00
2023-01-21T01:31:31.419Z,0.98
2023-01-21T01:32:31.323Z,1.00
2023-01-21T01:33:31.254Z,0.99
2023-01-21T01:34:31.202Z,0.92
2023-01-21T01:35:31.109Z,0.99
2023-01-21T01:36:31.035Z,0.98
2023-01-21T01:37:30.963Z,0.98
2023-01-21T01:38:30.893Z,0.95
2023-01-21T01:39:30.817Z,0.99
2023-01-21T01:40:30.765Z,0.95
2023-01-21T01:41:30.679Z,0.98
2023-01-21T01:42:30.603Z,1.00
2023-01-21T01:43:30.532Z,0.99
2023-01-21T01:44:30.460Z,0.95
2023-01-21T01:45:30.397Z,0.95
2023-01-21T01:46:30.364Z,0.92
2023-01-21T01:47:30.252Z,1.00
2023-01-21T01:48:30.171Z,0.98
2023-01-21T01:49:30.100Z,0.93
2023-01-21T01:50:30.036Z,0.99
2023-01-21T01:51:29.962Z,0.93
2023-01-21T01:52:29.892Z,0.96
2023-01-21T01:53:29.824Z,0.96
2023-01-21T01:54:29.746Z,0.92
2023-01-21T01:55:29.669Z,0.93
2023-01-21T01:56:29.599Z,0.99
2023-01-21T01:57:29.532Z,0.96
2023-01-21T01:58:29.458Z,0.92
2023-01-21T01:59:29.388Z,0.98
2023-01-21T02:00:29.321Z,0.98
2023-01-21T02:01:29.280Z,0.98
2023-01-21T02:02:29.226Z,1.02
2023-01-21T02:03:29.098Z,0.95
2023-01-21T02:04:29.026Z,1.04
2023-01-21T02:05:28.960Z,0.98
2023-01-21T02:06:28.879Z,1.04
2023-01-21T02:07:28.810Z,1.00
2023-01-21T02:08:28.736Z,0.93
2023-01-21T02:09:28.669Z,1.02
2023-01-21T02:10:28.597Z,1.04
2023-01-21T02:11:28.533Z,1.08
2023-01-21T02:12:28.464Z,0.96
2023-01-21T02:13:28.391Z,1.07
2023-01-21T02:14:28.311Z,0.98
2023-01-21T02:15:28.240Z,0.99
2023-01-21T02:16:28.226Z,1.07
2023-01-21T02:17:28.099Z,1.07
2023-01-21T02:18:28.019Z,1.07
2023-01-21T02:19:27.950Z,1.06
2023-01-21T02:20:27.877Z,1.04
2023-01-21T02:21:27.821Z,1.13
2023-01-21T02:22:27.729Z,1.11
2023-01-21T02:23:27.667Z,1.13
2023-01-21T02:24:27.594Z,1.04
2023-01-21T02:25:27.520Z,1.11
2023-01-21T02:26:27.453Z,0.99
2023-01-21T02:27:30.970Z,1.07
2023-01-21T02:28:27.328Z,1.07
2023-01-21T02:29:27.233Z,1.08
2023-01-21T02:30:27.172Z,1.07
2023-01-21T02:31:27.157Z,1.17
2023-01-21T02:32:27.013Z,1.10
2023-01-21T02:33:26.947Z,1.24
2023-01-21T02:34:26.871Z,1.11
2023-01-21T02:35:26.800Z,1.17
2023-01-21T02:36:26.733Z,1.17
2023-01-21T02:37:26.656Z,1.14
2023-01-21T02:38:26.584Z,1.04
2023-01-21T02:39:26.510Z,1.08
2023-01-21T02:40:26.463Z,1.10
2023-01-21T02:41:26.380Z,1.08
2023-01-21T02:42:26.304Z,1.20
2023-01-21T02:43:26.227Z,1.13
2023-01-21T02:44:26.161Z,1.11
2023-01-21T02:45:26.090Z,1.13
2023-01-21T02:46:26.053Z,1.25
2023-01-21T02:47:25.942Z,1.20
2023-01-21T02:48:25.879Z,1.21
2023-01-21T02:49:25.800Z,1.17
2023-01-21T02:50:25.729Z,1.24
2023-01-21T02:51:25.661Z,1.17
2023-01-21T02:52:25.582Z,1.28
2023-01-21T02:53:25.534Z,1.14
2023-01-21T02:54:25.440Z,1.25
2023-01-21T02:55:25.378Z,1.25
2023-01-21T02:56:25.302Z,1.25
2023-01-21T02:57:25.232Z,1.21
2023-01-21T02:58:25.156Z,1.20
2023-01-21T02:59:25.081Z,1.26
2023-01-21T03:00:25.020Z,1.24
2023-01-21T03:01:24.952Z,1.18
2023-01-21T03:02:24.868Z,1.18
2023-01-21T03:03:24.804Z,1.31
2023-01-21T03:04:24.729Z,1.20
2023-01-21T03:05:24.666Z,1.20
2023-01-21T03:06:24.577Z,1.18
2023-01-21T03:07:24.514Z,1.26
2023-01-21T03:08:24.438Z,1.31
2023-01-21T03:09:24.385Z,1.17
2023-01-21T03:10:24.306Z,1.20
2023-01-21T03:11:24.231Z,1.24
2023-01-21T03:12:24.157Z,1.31
2023-01-21T03:13:24.095Z,1.32
2023-01-21T03:14:24.028Z,1.25
2023-01-21T03:15:23.943Z,1.31
2023-01-21T03:16:23.908Z,1.21
2023-01-21T03:17:23.808Z,1.25
2023-01-21T03:18:23.768Z,1.26
2023-01-21T03:19:23.658Z,1.26
2023-01-21T03:20:23.581Z,1.21
2023-01-21T03:21:23.517Z,1.31
2023-01-21T03:22:23.443Z,1.32
2023-01-21T03:23:23.369Z,1.21
2023-01-21T03:24:23.298Z,1.28
2023-01-21T03:25:23.228Z,1.18
2023-01-21T03:26:23.149Z,1.21
2023-01-21T03:27:23.120Z,1.24
2023-01-21T03:28:23.017Z,1.29
2023-01-21T03:29:22.989Z,1.35
2023-01-21T03:30:22.868Z,1.34
2023-01-21T03:31:22.802Z,1.36
2023-01-21T03:32:22.734Z,1.31
2023-01-21T03:33:22.654Z,1.31
2023-01-21T03:34:22.586Z,1.32
2023-01-21T03:35:22.511Z,1.29
2023-01-21T03:36:22.437Z,1.34
2023-01-21T03:37:22.371Z,1.32
2023-01-21T03:38:22.297Z,1.35
2023-01-21T03:39:22.227Z,1.34
2023-01-21T03:40:22.155Z,1.34
2023-01-21T03:41:22.129Z,1.39
2023-01-21T03:42:22.012Z,1.44
2023-01-21T03:43:21.943Z,1.32
2023-01-21T03:44:21.896Z,1.35
2023-01-21T03:45:21.879Z,1.31
2023-01-21T03:46:21.724Z,1.32
2023-01-21T03:47:21.662Z,1.42
2023-01-21T03:48:21.580Z,1.34
2023-01-21T03:49:21.513Z,1.36
2023-01-21T03:50:21.440Z,1.31
2023-01-21T03:51:21.384Z,1.31
2023-01-21T03:52:21.295Z,1.42
2023-01-21T03:53:21.242Z,1.32
2023-01-21T03:54:21.152Z,1.29
2023-01-21T03:55:21.083Z,1.34
2023-01-21T03:56:21.009Z,1.34
2023-01-21T03:57:20.949Z,1.35
2023-01-21T03:58:20.866Z,1.38
2023-01-21T03:59:20.813Z,1.20
2023-01-21T04:00:20.732Z,1.25
2023-01-21T04:01:20.714Z,1.26
2023-01-21T04:02:20.657Z,1.18
2023-01-21T04:03:20.518Z,1.18
2023-01-21T04:04:20.451Z,1.08
2023-01-21T04:05:20.384Z,1.10
2023-01-21T04:06:20.295Z,1.10
2023-01-21T04:07:20.233Z,1.13
2023-01-21T04:08:20.155Z,1.11
2023-01-21T04:09:20.111Z,1.07
2023-01-21T04:10:20.009Z,1.08
2023-01-21T04:11:19.941Z,0.96
2023-01-21T04:12:19.879Z,0.98
2023-01-21T04:13:19.798Z,1.10
2023-01-21T04:14:19.722Z,0.98
2023-01-21T04:15:19.660Z,1.02
2023-01-21T04:16:19.676Z,1.02
2023-01-21T04:17:19.512Z,1.00
2023-01-21T04:18:19.436Z,1.07
2023-01-21T04:19:19.382Z,1.02
2023-01-21T04:20:19.449Z,1.02
2023-01-21T04:21:19.234Z,1.11
2023-01-21T04:22:19.149Z,1.10
2023-01-21T04:23:19.081Z,1.13
2023-01-21T04:24:19.020Z,1.08
2023-01-21T04:25:18.945Z,1.10
2023-01-21T04:26:18.862Z,1.11
2023-01-21T04:27:18.849Z,1.11
2023-01-21T04:28:18.721Z,1.14
2023-01-21T04:29:18.650Z,1.13
2023-01-21T04:30:18.999Z,1.21
2023-01-21T04:31:18.547Z,1.17
2023-01-21T04:32:18.444Z,1.11
2023-01-21T04:33:18.369Z,1.11
2023-01-21T04:34:18.288Z,1.20
2023-01-21T04:35:18.226Z,1.25
2023-01-21T04:36:18.153Z,1.16
2023-01-21T04:37:18.090Z,1.26
2023-01-21T04:38:18.014Z,1.24
2023-01-21T04:39:17.944Z,1.20
2023-01-21T04:40:18.229Z,1.28
2023-01-21T04:41:17.910Z,1.24
2023-01-21T04:42:17.715Z,1.20
2023-01-21T04:43:17.646Z,1.21
2023-01-21T04:44:17.574Z,1.21
2023-01-21T04:45:17.502Z,1.24
2023-01-21T04:46:17.465Z,1.29
2023-01-21T04:47:17.367Z,1.20
2023-01-21T04:48:17.287Z,1.28
2023-01-21T04:49:17.222Z,1.24
2023-01-21T04:50:17.329Z,1.18
2023-01-21T04:51:17.132Z,1.24
2023-01-21T04:52:17.001Z,1.10
2023-01-21T04:53:16.930Z,1.16
2023-01-21T04:54:16.860Z,1.10
2023-01-21T04:55:16.784Z,1.11
2023-01-21T04:56:16.744Z,1.10
2023-01-21T04:57:16.648Z,1.07
2023-01-21T04:58:16.573Z,1.10
2023-01-21T04:59:16.501Z,1.11
2023-01-21T05:00:16.946Z,0.99
2023-01-21T05:01:16.425Z,0.98
2023-01-21T05:02:16.300Z,1.02
2023-01-21T05:03:16.217Z,1.06
2023-01-21T05:04:16.138Z,1.00
2023-01-21T05:05:16.075Z,1.02
2023-01-21T05:06:16.003Z,0.99
2023-01-21T05:07:15.928Z,0.98
2023-01-21T05:08:15.854Z,1.04
2023-01-21T05:09:15.804Z,1.10
2023-01-21T05:10:16.068Z,1.10
2023-01-21T05:11:15.642Z,0.99
2023-01-21T05:12:15.564Z,1.08
2023-01-21T05:13:15.505Z,1.11
2023-01-21T05:14:15.421Z,1.17
2023-01-21T05:15:15.362Z,1.17
2023-01-21T05:16:15.286Z,1.18
2023-01-21T05:17:15.212Z,1.13
2023-01-21T05:18:15.136Z,1.20
2023-01-21T05:19:15.372Z,1.13
2023-01-21T05:20:15.168Z,1.10
2023-01-21T05:21:14.927Z,1.17
2023-01-21T05:22:14.846Z,1.28
2023-01-21T05:23:14.780Z,1.28
2023-01-21T05:24:14.702Z,1.18
2023-01-21T05:25:14.633Z,1.13
2023-01-21T05:26:14.558Z,1.10
2023-01-21T05:27:14.502Z,1.16
2023-01-21T05:28:14.419Z,1.16
2023-01-21T05:29:14.353Z,1.11
2023-01-21T05:30:14.387Z,1.07
2023-01-21T05:31:14.354Z,1.11
2023-01-21T05:32:14.140Z,1.14
2023-01-21T05:33:14.068Z,1.11
2023-01-21T05:34:13.986Z,1.10
2023-01-21T05:35:13.916Z,1.11
2023-01-21T05:36:13.848Z,1.08
2023-01-21T05:37:13.773Z,1.08
2023-01-21T05:38:13.698Z,1.13
2023-01-21T05:39:13.663Z,1.11
2023-01-21T05:40:13.580Z,1.11
2023-01-21T05:41:13.492Z,1.11
2023-01-21T05:42:13.415Z,1.16
2023-01-21T05:43:13.354Z,1.17
2023-01-21T05:44:13.305Z,1.14
2023-01-21T05:45:13.232Z,1.10
2023-01-21T05:46:13.155Z,1.20
2023-01-21T05:47:13.057Z,1.29
2023-01-21T05:48:12.983Z,1.28
2023-01-21T05:49:12.913Z,1.26
2023-01-21T05:50:12.852Z,1.24
2023-01-21T05:51:12.844Z,1.18
2023-01-21T05:52:12.699Z,1.18
2023-01-21T05:53:12.631Z,1.32
2023-01-21T05:54:12.563Z,1.31
2023-01-21T05:55:12.483Z,1.29
2023-01-21T05:56:12.423Z,1.28
2023-01-21T05:57:12.340Z,1.29
2023-01-21T05:58:12.266Z,1.34
2023-01-21T05:59:12.193Z,1.31
2023-01-21T06:00:12.134Z,1.34
2023-01-21T06:01:12.072Z,1.34
2023-01-21T06:02:12.076Z,1.38
2023-01-21T06:03:11.914Z,1.38
2023-01-21T06:04:11.842Z,1.36
2023-01-21T06:05:11.773Z,1.36
2023-01-21T06:06:11.698Z,1.34
2023-01-21T06:07:11.625Z,1.38
2023-01-21T06:08:11.556Z,1.38
2023-01-21T06:09:11.485Z,1.43
2023-01-21T06:10:11.405Z,1.39
2023-01-21T06:11:11.337Z,1.42
2023-01-21T06:12:11.271Z,1.52
2023-01-21T06:13:11.194Z,1.46
2023-01-21T06:14:11.118Z,1.50
2023-01-21T06:15:11.055Z,1.50
2023-01-21T06:16:11.033Z,1.50
2023-01-21T06:17:10.910Z,1.47
2023-01-21T06:18:10.836Z,1.61
2023-01-21T06:19:10.764Z,1.53
2023-01-21T06:20:10.692Z,1.53
2023-01-21T06:21:10.621Z,1.54
2023-01-21T06:22:10.549Z,1.53
2023-01-21T06:23:10.477Z,1.61
2023-01-21T06:24:10.407Z,1.63
2023-01-21T06:25:10.340Z,1.65
2023-01-21T06:26:10.263Z,1.60
2023-01-21T06:27:10.193Z,1.61
2023-01-21T06:28:10.148Z,1.70
2023-01-21T06:29:10.051Z,1.64
2023-01-21T06:30:09.974Z,1.67
2023-01-21T06:31:09.956Z,1.70
2023-01-21T06:32:09.871Z,1.79
2023-01-21T06:33:09.775Z,1.79
2023-01-21T06:34:09.694Z,1.75
2023-01-21T06:35:09.616Z,1.71
2023-01-21T06:36:09.546Z,1.79
2023-01-21T06:37:09.479Z,1.68
2023-01-21T06:38:09.431Z,1.77
2023-01-21T06:39:09.331Z,1.72
2023-01-21T06:40:09.260Z,1.75
2023-01-21T06:41:09.201Z,1.81
2023-01-21T06:42:09.147Z,1.81
2023-01-21T06:43:09.043Z,1.82
2023-01-21T06:44:08.980Z,1.81
2023-01-21T06:45:08.904Z,1.77
2023-01-21T06:46:08.865Z,1.82
2023-01-21T06:47:08.819Z,1.85
2023-01-21T06:48:08.708Z,1.82
2023-01-21T06:49:08.630Z,1.79
2023-01-21T06:50:08.585Z,1.79
2023-01-21T06:51:08.511Z,1.79
2023-01-21T06:52:08.414Z,1.81
2023-01-21T06:53:08.388Z,1.85
2023-01-21T06:54:08.271Z,1.86
2023-01-21T06:55:08.188Z,1.82
2023-01-21T06:56:08.140Z,1.77
2023-01-21T06:57:08.047Z,1.83
2023-01-21T06:58:07.993Z,1.83
2023-01-21T06:59:07.906Z,1.90
2023-01-21T07:00:07.864Z,1.89
2023-01-21T07:01:07.775Z,1.83
2023-01-21T07:02:07.698Z,1.79
2023-01-21T07:03:07.616Z,1.81
2023-01-21T07:04:07.560Z,1.82
2023-01-21T07:05:07.529Z,1.82
2023-01-21T07:06:07.416Z,1.79
2023-01-21T07:07:07.340Z,1.81
2023-01-21T07:08:07.274Z,1.86
2023-01-21T07:09:07.197Z,1.83
2023-01-21T07:10:07.115Z,1.82
2023-01-21T07:11:07.050Z,1.85
2023-01-21T07:12:06.984Z,1.85
2023-01-21T07:13:06.905Z,1.86
2023-01-21T07:14:06.834Z,1.79
2023-01-21T07:15:06.755Z,1.75
2023-01-21T07:16:07.065Z,1.75
2023-01-21T07:17:06.620Z,1.75
2023-01-21T07:18:06.544Z,1.81
2023-01-21T07:19:06.478Z,1.81
2023-01-21T07:20:06.402Z,1.77
2023-01-21T07:21:06.332Z,1.83
2023-01-21T07:22:06.264Z,1.85
2023-01-21T07:23:06.199Z,1.82
2023-01-21T07:24:06.110Z,1.82
2023-01-21T07:25:06.053Z,1.77
2023-01-21T07:26:05.972Z,1.81
2023-01-21T07:27:05.921Z,1.83
2023-01-21T07:28:05.827Z,1.85
2023-01-21T07:29:05.770Z,1.90
2023-01-21T07:30:05.690Z,1.89
2023-01-21T07:31:05.680Z,1.89
2023-01-21T07:32:05.607Z,1.89
2023-01-21T07:33:05.474Z,1.88
2023-01-21T07:34:05.396Z,1.95
2023-01-21T07:35:05.322Z,1.89
2023-01-21T07:36:05.259Z,1.92
2023-01-21T07:37:05.201Z,2.01
2023-01-21T07:38:05.141Z,1.95
2023-01-21T07:39:05.038Z,1.90
2023-01-21T07:40:04.979Z,1.89
2023-01-21T07:41:04.912Z,1.92
2023-01-21T07:42:04.823Z,1.85
2023-01-21T07:43:04.754Z,1.92
2023-01-21T07:44:04.679Z,1.86
2023-01-21T07:45:04.605Z,1.83
2023-01-21T07:46:04.536Z,1.92
2023-01-21T07:47:04.463Z,1.95
2023-01-21T07:48:04.401Z,1.89
2023-01-21T07:49:04.325Z,1.88
2023-01-21T07:50:04.251Z,1.92
2023-01-21T07:51:04.188Z,1.95
2023-01-21T07:52:04.111Z,1.92
2023-01-21T07:53:04.042Z,1.90
2023-01-21T07:54:03.982Z,1.86
2023-01-21T07:55:03.893Z,1.93
2023-01-21T07:56:03.823Z,1.88
2023-01-21T07:57:03.747Z,1.90
2023-01-21T07:58:03.714Z,1.85
2023-01-21T07:59:03.607Z,1.90
2023-01-21T08:00:03.563Z,1.89
2023-01-21T08:01:03.467Z,1.92
2023-01-21T08:02:03.559Z,1.89
2023-01-21T08:03:03.318Z,1.92
2023-01-21T08:04:03.302Z,1.92
2023-01-21T08:05:03.173Z,1.95
2023-01-21T08:06:03.104Z,1.92
2023-01-21T08:07:03.044Z,1.93
2023-01-21T08:08:02.969Z,1.92
2023-01-21T08:09:02.893Z,1.93
2023-01-21T08:10:02.855Z,1.93
2023-01-21T08:11:02.747Z,2.00
2023-01-21T08:12:02.676Z,1.95
2023-01-21T08:13:02.606Z,2.00
2023-01-21T08:14:02.532Z,2.01
2023-01-21T08:15:02.470Z,2.04
2023-01-21T08:16:02.429Z,2.01
2023-01-21T08:17:02.324Z,2.05
2023-01-21T08:18:02.246Z,2.05
2023-01-21T08:19:02.175Z,2.07
2023-01-21T08:20:02.115Z,2.07
2023-01-21T08:21:02.034Z,2.09
2023-01-21T08:22:01.977Z,2.11
2023-01-21T08:23:01.896Z,2.07
2023-01-21T08:24:01.835Z,2.09
2023-01-21T08:25:01.758Z,2.07
2023-01-21T08:26:01.680Z,2.08
2023-01-21T08:27:01.620Z,2.11
2023-01-21T08:28:01.579Z,2.09
2023-01-21T08:29:01.460Z,2.12
2023-01-21T08:30:01.394Z,2.18
2023-01-21T08:31:01.345Z,2.12
2023-01-21T08:32:01.255Z,2.14
2023-01-21T08:33:01.185Z,2.20
2023-01-21T08:34:01.108Z,2.25
2023-01-21T08:35:01.035Z,2.12
2023-01-21T08:36:00.964Z,2.08
2023-01-21T08:37:00.894Z,2.20
2023-01-21T08:38:00.819Z,2.14
2023-01-21T08:39:00.749Z,2.26
2023-01-21T08:40:00.678Z,2.23
2023-01-21T08:41:00.625Z,2.20
2023-01-21T08:42:00.532Z,2.23
2023-01-21T08:43:00.471Z,2.19
2023-01-21T08:44:00.413Z,2.14
2023-01-21T08:45:00.337Z,2.14
2023-01-21T08:46:00.291Z,2.15
2023-01-21T08:47:00.184Z,2.26
2023-01-21T08:48:00.143Z,2.26
2023-01-21T08:49:00.044Z,2.29
2023-01-21T08:49:59.977Z,2.26
2023-01-21T08:50:59.975Z,2.29
2023-01-21T08:51:59.829Z,2.27
2023-01-21T08:52:59.759Z,2.36
2023-01-21T08:53:59.685Z,2.32
2023-01-21T08:54:59.609Z,2.30
2023-01-21T08:55:59.551Z,2.27
2023-01-21T08:56:59.477Z,2.36
2023-01-21T08:57:59.401Z,2.33
2023-01-21T08:58:59.339Z,2.29
2023-01-21T08:59:59.265Z,2.30
2023-01-21T09:00:59.208Z,2.33
2023-01-21T09:01:59.211Z,2.32
2023-01-21T09:02:59.040Z,2.32
2023-01-21T09:03:58.991Z,2.33
2023-01-21T09:04:58.912Z,2.33
2023-01-21T09:05:58.834Z,2.33
2023-01-21T09:06:58.757Z,2.40
2023-01-21T09:07:58.706Z,2.37
2023-01-21T09:08:58.614Z,2.37
2023-01-21T09:09:58.548Z,2.33
2023-01-21T09:10:58.492Z,2.36
2023-01-21T09:11:58.411Z,2.45
2023-01-21T09:12:58.343Z,2.41
2023-01-21T09:13:58.262Z,2.44
2023-01-21T09:14:58.190Z,2.47
2023-01-21T09:15:58.122Z,2.50
2023-01-21T09:16:58.055Z,2.44
2023-01-21T09:17:57.976Z,2.38
2023-01-21T09:18:57.919Z,2.45
2023-01-21T09:19:57.839Z,2.45
2023-01-21T09:20:57.764Z,2.32
2023-01-21T09:21:57.703Z,2.40
2023-01-21T09:22:57.629Z,2.44
2023-01-21T09:23:57.560Z,2.55
2023-01-21T09:24:57.488Z,2.36
2023-01-21T09:25:57.414Z,2.59
2023-01-21T09:26:57.347Z,2.56
2023-01-21T09:27:57.315Z,2.56
2023-01-21T09:28:57.237Z,2.58
2023-01-21T09:29:57.128Z,2.62
2023-01-21T09:30:57.080Z,2.53
2023-01-21T09:31:57.028Z,2.58
2023-01-21T09:32:56.917Z,2.56
2023-01-21T09:33:56.850Z,2.58
2023-01-21T09:34:56.784Z,2.53
2023-01-21T09:35:56.717Z,2.62
2023-01-21T09:36:56.641Z,2.56
2023-01-21T09:37:56.571Z,2.61
2023-01-21T09:38:56.498Z,2.62
2023-01-21T09:39:56.449Z,2.53
2023-01-21T09:40:56.358Z,2.62
2023-01-21T09:41:56.297Z,2.58
2023-01-21T09:42:56.213Z,2.59
2023-01-21T09:43:56.143Z,2.56
2023-01-21T09:44:56.078Z,2.59
2023-01-21T09:45:56.039Z,2.59
2023-01-21T09:46:55.959Z,2.56
2023-01-21T09:47:55.862Z,2.61
2023-01-21T09:48:55.800Z,2.68
2023-01-21T09:49:55.720Z,2.59
2023-01-21T09:50:55.646Z,2.59
2023-01-21T09:51:55.581Z,2.68
2023-01-21T09:52:55.507Z,2.69
2023-01-21T09:53:55.478Z,2.61
2023-01-21T09:54:55.388Z,2.71
2023-01-21T09:55:55.303Z,2.79
2023-01-21T09:56:55.234Z,2.73
2023-01-21T09:57:55.168Z,2.73
2023-01-21T09:58:55.088Z,2.77
2023-01-21T09:59:55.018Z,2.74
2023-01-21T10:00:55.030Z,2.89
2023-01-21T10:01:54.887Z,2.80
2023-01-21T10:02:54.812Z,2.83
2023-01-21T10:03:54.747Z,2.84
2023-01-21T10:04:54.717Z,2.84
2023-01-21T10:05:54.603Z,2.89
2023-01-21T10:06:54.521Z,2.92
2023-01-21T10:07:54.464Z,2.89
2023-01-21T10:08:54.413Z,2.86
2023-01-21T10:09:54.329Z,3.04
2023-01-21T10:10:54.247Z,2.94
2023-01-21T10:11:54.170Z,3.01
2023-01-21T10:12:54.138Z,2.90
2023-01-21T10:13:54.037Z,2.81
2023-01-21T10:14:53.995Z,2.86
2023-01-21T10:15:53.896Z,2.89
2023-01-21T10:16:53.894Z,2.83
2023-01-21T10:17:53.750Z,3.01
2023-01-21T10:18:53.679Z,2.87
2023-01-21T10:19:53.620Z,2.97
2023-01-21T10:20:53.552Z,2.94
2023-01-21T10:21:53.486Z,2.94
2023-01-21T10:22:53.412Z,2.98
2023-01-21T10:23:53.358Z,3.01
2023-01-21T10:24:53.289Z,2.98
2023-01-21T10:25:53.193Z,3.04
2023-01-21T10:26:53.127Z,3.02
2023-01-21T10:27:53.050Z,2.98
2023-01-21T10:28:52.979Z,2.97
2023-01-21T10:29:52.926Z,2.99
2023-01-21T10:30:52.912Z,2.99
2023-01-21T10:31:52.871Z,3.01
2023-01-21T10:32:52.709Z,3.07
2023-01-21T10:33:52.633Z,3.08
2023-01-21T10:34:52.558Z,3.04
2023-01-21T10:35:52.497Z,3.05
2023-01-21T10:36:52.418Z,3.15
2023-01-21T10:37:52.355Z,3.15
2023-01-21T10:38:52.283Z,3.13
2023-01-21T10:39:52.211Z,3.25
2023-01-21T10:40:52.140Z,3.26
2023-01-21T10:41:52.070Z,3.20
2023-01-21T10:42:51.997Z,3.26
2023-01-21T10:43:51.965Z,3.23
2023-01-21T10:44:51.868Z,3.26
2023-01-21T10:45:51.824Z,3.37
2023-01-21T10:46:51.720Z,3.37
2023-01-21T10:47:51.656Z,3.30
2023-01-21T10:48:51.586Z,3.31
2023-01-21T10:49:51.512Z,3.33
2023-01-21T10:50:51.502Z,3.44
2023-01-21T10:51:51.367Z,3.46
2023-01-21T10:52:51.297Z,3.39
2023-01-21T10:53:51.234Z,3.45
2023-01-21T10:54:51.162Z,3.45
2023-01-21T10:55:51.093Z,3.49
2023-01-21T10:56:51.019Z,3.46
2023-01-21T10:57:50.982Z,3.37
2023-01-21T10:58:50.881Z,3.44
2023-01-21T10:59:50.807Z,3.57
2023-01-21T11:00:50.749Z,3.62
2023-01-21T11:01:50.669Z,3.60
2023-01-21T11:02:50.666Z,3.57
2023-01-21T11:03:50.532Z,3.53
2023-01-21T11:04:50.480Z,3.60
2023-01-21T11:05:50.391Z,3.54
2023-01-21T11:06:50.360Z,3.53
2023-01-21T11:07:50.253Z,3.59
2023-01-21T11:08:50.212Z,3.72
2023-01-21T11:09:50.111Z,3.68
2023-01-21T11:10:50.046Z,3.80
2023-01-21T11:11:49.982Z,3.78
2023-01-21T11:12:49.901Z,3.78
2023-01-21T11:13:49.831Z,3.75
2023-01-21T11:14:49.770Z,3.78
2023-01-21T11:15:49.742Z,3.74
2023-01-21T11:16:49.643Z,3.74
2023-01-21T11:17:49.573Z,3.67
2023-01-21T11:18:49.483Z,3.75
2023-01-21T11:19:49.415Z,3.75
2023-01-21T11:20:49.351Z,3.82
2023-01-21T11:21:49.286Z,3.81
2023-01-21T11:22:49.205Z,3.92
2023-01-21T11:23:49.133Z,3.86
2023-01-21T11:24:49.073Z,3.84
2023-01-21T11:25:49.008Z,3.95
2023-01-21T11:26:48.928Z,3.96
2023-01-21T11:27:48.855Z,3.98
2023-01-21T11:28:48.794Z,3.81
2023-01-21T11:29:48.730Z,3.95
2023-01-21T11:30:51.554Z,3.96
2023-01-21T11:31:48.742Z,4.08
2023-01-21T11:32:48.513Z,4.07
2023-01-21T11:33:48.442Z,4.06
2023-01-21T11:34:48.376Z,3.89
2023-01-21T11:35:48.302Z,3.98
2023-01-21T11:36:48.240Z,4.04
2023-01-21T11:37:48.159Z,3.92
2023-01-21T11:38:48.112Z,3.88
2023-01-21T11:39:48.023Z,4.02
2023-01-21T11:40:47.956Z,4.07
2023-01-21T11:41:47.883Z,4.06
2023-01-21T11:42:47.820Z,4.13
2023-01-21T11:43:47.744Z,4.04
2023-01-21T11:44:47.683Z,4.17
2023-01-21T11:45:47.607Z,4.16
2023-01-21T11:46:47.543Z,4.17
2023-01-21T11:47:47.474Z,4.08
2023-01-21T11:48:47.401Z,4.13
2023-01-21T11:49:47.331Z,4.14
2023-01-21T11:50:47.309Z,4.10
2023-01-21T11:51:47.202Z,4.26
2023-01-21T11:52:47.134Z,4.20
2023-01-21T11:53:47.052Z,4.11
2023-01-21T11:54:46.989Z,4.07
2023-01-21T11:55:46.927Z,4.18
2023-01-21T11:56:46.848Z,4.10
2023-01-21T11:57:46.777Z,4.18
2023-01-21T11:58:46.706Z,4.25
2023-01-21T11:59:46.643Z,4.18
2023-01-21T12:00:46.642Z,4.17
2023-01-21T12:01:46.502Z,4.13
2023-01-21T12:02:46.501Z,4.17
2023-01-21T12:03:46.391Z,4.25
2023-01-21T12:04:46.293Z,4.29
2023-01-21T12:05:46.232Z,4.28
2023-01-21T12:06:46.153Z,4.29
2023-01-21T12:07:46.084Z,4.34
2023-01-21T12:08:46.045Z,4.31
2023-01-21T12:09:45.949Z,4.34
2023-01-21T12:10:45.885Z,4.43
2023-01-21T12:11:45.804Z,4.59
2023-01-21T12:12:45.748Z,4.68
2023-01-21T12:13:45.669Z,4.56
2023-01-21T12:14:45.601Z,4.47
2023-01-21T12:15:45.562Z,4.47
2023-01-21T12:16:45.459Z,4.56
2023-01-21T12:17:45.389Z,4.53
2023-01-21T12:18:45.329Z,4.56
2023-01-21T12:19:45.249Z,4.51
2023-01-21T12:20:45.190Z,4.59
2023-01-21T12:21:45.111Z,4.50
2023-01-21T12:22:45.049Z,4.47
2023-01-21T12:23:44.981Z,4.59
2023-01-21T12:24:44.914Z,4.50
2023-01-21T12:25:44.836Z,4.53
2023-01-21T12:26:44.767Z,4.43
2023-01-21T12:27:44.711Z,4.56
2023-01-21T12:28:44.635Z,4.64
2023-01-21T12:29:44.573Z,4.51
2023-01-21T12:30:44.563Z,4.62
2023-01-21T12:31:44.483Z,4.62
2023-01-21T12:32:44.351Z,4.67
2023-01-21T12:33:44.326Z,4.71
2023-01-21T12:34:44.214Z,4.72
2023-01-21T12:35:44.148Z,4.64
2023-01-21T12:36:44.079Z,4.68
2023-01-21T12:37:44.010Z,4.72
2023-01-21T12:38:43.944Z,4.67
2023-01-21T12:39:43.868Z,4.79
2023-01-21T12:40:43.828Z,4.71
2023-01-21T12:41:43.745Z,4.56
2023-01-21T12:42:43.663Z,4.67
2023-01-21T12:43:43.598Z,4.71
2023-01-21T12:44:43.531Z,4.68
2023-01-21T12:45:43.458Z,4.59
2023-01-21T12:46:43.456Z,4.65
2023-01-21T12:47:43.316Z,4.74
2023-01-21T12:48:43.262Z,4.75
2023-01-21T12:49:43.175Z,4.72
2023-01-21T12:50:43.109Z,4.71
2023-01-21T12:51:43.041Z,4.69
2023-01-21T12:52:42.973Z,4.69
2023-01-21T12:53:42.924Z,4.74
2023-01-21T12:54:42.865Z,4.68
2023-01-21T12:55:42.776Z,4.69
2023-01-21T12:56:42.709Z,4.77
2023-01-21T12:57:42.624Z,4.74
2023-01-21T12:58:42.560Z,4.71
2023-01-21T12:59:42.487Z,4.69
2023-01-21T13:00:42.462Z,4.74
2023-01-21T13:01:42.389Z,4.74
2023-01-21T13:02:42.280Z,4.69
2023-01-21T13:03:42.214Z,4.74
2023-01-21T13:04:42.146Z,4.68
2023-01-21T13:05:42.077Z,4.74
2023-01-21T13:06:53.033Z,4.71
2023-01-21T13:07:41.939Z,4.86
2023-01-21T13:08:41.867Z,4.77
2023-01-21T13:09:41.803Z,4.75
2023-01-21T13:10:41.726Z,4.77
2023-01-21T13:11:41.663Z,4.77
2023-01-21T13:12:41.602Z,4.74
2023-01-21T13:13:41.565Z,4.74
2023-01-21T13:14:41.461Z,4.71
2023-01-21T13:15:41.442Z,4.74
2023-01-21T13:16:41.359Z,4.69
2023-01-21T13:17:41.246Z,4.71